Time;durP1;ratioP1;P1;durP2;ratioP2;P2;SDS_P1;SDS_P2;PMS_P1;PMS_P2;Temp;Humidity;BMP_temperature;BMP_pressure;BME280_temperature;BME280_humidity;BME280_pressure;Samples;Min_cycle;Max_cycle;Signal;HPM_P1;HPM_P2
2021/12/27 00:01:50;;;;;;;44.03;25.33;;;;;;;0.28;100.00;99575.31;6182617;23;20064;-78
2021/12/27 00:04:15;;;;;;;45.38;26.73;;;;;;;0.27;100.00;99576.47;6156898;23;20013;-78
2021/12/27 00:06:41;;;;;;;44.20;25.90;;;;;;;0.27;100.00;99567.50;6131768;23;20032;-78
2021/12/27 00:09:06;;;;;;;44.63;26.52;;;;;;;0.24;100.00;99574.50;6183124;23;20036;-78
2021/12/27 00:11:32;;;;;;;43.75;25.27;;;;;;;0.28;100.00;99575.31;6182996;23;20095;-78
2021/12/27 00:13:57;;;;;;;44.70;27.05;;;;;;;0.31;100.00;99562.88;6182592;23;20009;-78
2021/12/27 00:16:22;;;;;;;42.05;23.35;;;;;;;0.32;100.00;99569.88;6183084;23;20017;-78
2021/12/27 00:18:48;;;;;;;40.20;22.58;;;;;;;0.28;99.94;99564.41;6156681;23;20013;-78
2021/12/27 00:21:13;;;;;;;42.25;24.05;;;;;;;0.25;100.00;99558.91;6182689;23;20020;-78
2021/12/27 00:23:39;;;;;;;40.75;24.50;;;;;;;0.27;100.00;99553.88;6156157;23;20013;-78
2021/12/27 00:26:05;;;;;;;38.72;22.33;;;;;;;0.21;99.67;99547.97;6182521;23;20060;-78
2021/12/27 00:28:32;;;;;;;37.38;23.02;;;;;;;0.27;99.57;99562.84;6183098;23;20067;-78
2021/12/27 00:30:58;;;;;;;36.88;22.42;;;;;;;0.18;99.21;99542.50;6182289;23;20029;-78
2021/12/27 00:33:24;;;;;;;40.20;23.67;;;;;;;0.28;99.11;99547.25;6156434;23;20009;-78
2021/12/27 00:35:50;;;;;;;42.47;23.60;;;;;;;0.26;99.19;99550.34;6156654;23;20096;-78
2021/12/27 00:38:16;;;;;;;43.65;24.52;;;;;;;0.26;99.45;99555.03;6183182;23;20009;-78
2021/12/27 00:40:44;;;;;;;43.00;23.58;;;;;;;0.25;99.74;99553.44;6181691;23;20009;-78
2021/12/27 00:43:10;;;;;;;41.80;24.15;;;;;;;0.24;99.79;99546.44;6183080;23;20013;-78
2021/12/27 00:45:36;;;;;;;41.20;23.95;;;;;;;0.24;99.77;99547.25;6183068;23;20451;-78
2021/12/27 00:48:02;;;;;;;39.38;24.02;;;;;;;0.21;99.40;99544.47;6156662;23;20447;-78
2021/12/27 00:50:28;;;;;;;37.88;22.33;;;;;;;0.21;99.73;99550.69;6183888;23;20017;-78
2021/12/27 00:52:53;;;;;;;38.88;23.80;;;;;;;0.20;99.78;99551.09;6133789;23;20009;-78
2021/12/27 00:55:20;;;;;;;38.30;23.25;;;;;;;0.21;99.63;99558.09;6185067;23;20019;-78
2021/12/27 00:57:46;;;;;;;36.53;22.90;;;;;;;0.25;99.73;99553.44;6158465;23;20005;-78
2021/12/27 01:00:15;;;;;;;39.45;23.75;;;;;;;0.28;99.26;99552.72;6158688;23;20016;-78
2021/12/27 01:02:42;;;;;;;38.50;22.98;;;;;;;0.25;98.92;99550.72;6184050;23;20044;-78
2021/12/27 01:05:09;;;;;;;30.65;18.60;;;;;;;0.21;97.18;99541.72;6184750;23;20509;-78
2021/12/27 01:07:35;;;;;;;31.40;17.92;;;;;;;0.15;95.76;99543.25;6158125;23;20351;-78
2021/12/27 01:13:03;;;;;;;31.90;17.45;;;;;;;0.18;92.96;99553.41;6184709;23;20024;-78
2021/12/27 01:17:58;;;;;;;27.92;17.30;;;;;;;0.21;94.18;99552.66;6184116;23;20396;-81
2021/12/27 01:20:24;;;;;;;31.88;17.50;;;;;;;0.16;93.71;99544.84;6184717;23;20651;-80
2021/12/27 01:22:51;;;;;;;31.52;18.50;;;;;;;0.24;94.14;99560.09;6158026;23;20013;-81
2021/12/27 01:25:16;;;;;;;28.05;17.20;;;;;;;0.19;94.82;99560.44;6184658;23;20089;-80
2021/12/27 01:27:43;;;;;;;30.15;18.10;;;;;;;0.23;94.88;99558.53;6184294;23;20044;-80
2021/12/27 01:30:11;;;;;;;32.50;18.63;;;;;;;0.20;94.51;99553.81;6158299;23;20011;-80
2021/12/27 01:32:44;;;;;;;28.60;17.75;;;;;;;0.17;95.00;99554.56;6158273;23;20009;-80
2021/12/27 01:35:10;;;;;;;31.63;18.15;;;;;;;0.16;95.25;99550.28;6184732;23;20359;-80
2021/12/27 01:37:36;;;;;;;31.08;18.38;;;;;;;0.25;95.14;99540.59;6157737;23;20009;-80
2021/12/27 01:40:03;;;;;;;32.97;20.70;;;;;;;0.25;95.28;99556.19;6184265;23;20092;-80
2021/12/27 01:42:29;;;;;;;35.80;22.25;;;;;;;0.15;96.34;99535.88;6158008;23;20021;-80
2021/12/27 01:44:54;;;;;;;45.58;25.58;;;;;;;0.16;99.23;99545.63;6157982;23;20076;-80
2021/12/27 01:47:20;;;;;;;48.03;28.38;;;;;;;0.23;98.11;99544.88;6184110;23;20064;-80
2021/12/27 01:49:46;;;;;;;49.78;28.17;;;;;;;0.27;99.61;99553.88;6184084;23;20032;-80
2021/12/27 01:52:11;;;;;;;49.35;28.15;;;;;;;0.29;99.06;99549.59;6157862;23;20008;-80
2021/12/27 01:54:37;;;;;;;47.88;27.90;;;;;;;0.26;100.00;99546.84;6184442;23;20508;-81
2021/12/27 01:57:03;;;;;;;46.63;27.38;;;;;;;0.35;100.00;99555.47;6184020;23;20309;-81
2021/12/27 01:59:28;;;;;;;47.72;26.52;;;;;;;0.33;100.00;99549.59;6184351;23;20560;-80
2021/12/27 02:01:54;;;;;;;44.13;25.63;;;;;;;0.30;99.74;99545.72;6183178;23;20016;-80
2021/12/27 02:04:20;;;;;;;42.70;24.70;;;;;;;0.27;99.42;99534.78;6157471;23;20017;-80
2021/12/27 02:06:46;;;;;;;42.17;24.70;;;;;;;0.21;99.44;99531.59;6157321;23;20021;-80
2021/12/27 02:09:11;;;;;;;41.92;23.63;;;;;;;0.28;99.08;99547.25;6157832;23;20017;-80
2021/12/27 02:11:37;;;;;;;40.15;22.63;;;;;;;0.21;98.76;99536.28;6157827;23;20001;-81
2021/12/27 02:14:04;;;;;;;34.95;20.42;;;;;;;0.26;97.86;99527.75;6184057;23;20032;-81
2021/12/27 02:16:30;;;;;;;34.38;19.73;;;;;;;0.28;97.01;99541.81;6157914;23;20036;-80
2021/12/27 02:18:56;;;;;;;32.72;17.30;;;;;;;0.27;95.18;99540.22;6183602;23;20013;-80
2021/12/27 02:21:22;;;;;;;25.80;15.25;;;;;;;0.27;94.76;99546.47;6183853;23;20390;-80
2021/12/27 02:23:49;;;;;;;25.60;15.57;;;;;;;0.25;93.73;99542.53;6183709;23;20013;-80
2021/12/27 02:26:16;;;;;;;23.95;14.15;;;;;;;0.29;93.37;99543.34;6183984;23;20091;-81
2021/12/27 02:28:42;;;;;;;24.95;14.75;;;;;;;0.26;93.10;99542.16;6157171;23;20315;-81
2021/12/27 02:31:09;;;;;;;24.42;14.32;;;;;;;0.31;92.51;99551.94;6184012;23;20403;-81
2021/12/27 02:33:38;;;;;;;23.35;13.48;;;;;;;0.31;92.58;99551.94;6183850;23;20009;-81
2021/12/27 02:36:05;;;;;;;20.23;12.38;;;;;;;0.31;92.50;99551.94;6157752;23;20066;-81
2021/12/27 02:38:32;;;;;;;20.42;11.35;;;;;;;0.25;89.71;99548.00;6157528;23;20379;-80
2021/12/27 02:40:58;;;;;;;19.77;11.57;;;;;;;0.25;89.33;99550.72;6183629;23;20028;-80
2021/12/27 02:43:26;;;;;;;16.52;10.30;;;;;;;0.25;87.79;99553.44;6157109;23;20087;-81
2021/12/27 02:46:03;;;;;;;18.00;10.50;;;;;;;0.23;87.84;99556.56;6183724;23;20485;-81
2021/12/27 02:48:33;;;;;;;17.70;10.52;;;;;;;0.22;87.58;99565.13;6184317;23;20016;-81
2021/12/27 02:50:58;;;;;;;20.45;10.80;;;;;;;0.20;87.29;99565.53;6181997;23;20527;-81
2021/12/27 02:53:25;;;;;;;17.58;10.32;;;;;;;0.21;87.37;99569.00;6157305;23;20039;-82
2021/12/27 02:55:52;;;;;;;16.23;10.10;;;;;;;0.23;87.21;99563.97;6157359;23;20036;-82
2021/12/27 02:58:20;;;;;;;13.98;9.13;;;;;;;0.20;86.06;99562.78;6157851;23;20013;-81
2021/12/27 03:00:50;;;;;;;15.52;9.25;;;;;;;0.20;85.48;99554.63;6157230;23;20081;-81
2021/12/27 03:03:15;;;;;;;14.68;9.40;;;;;;;0.19;84.95;99554.97;6157348;23;20328;-81
2021/12/27 03:05:42;;;;;;;15.23;9.43;;;;;;;0.07;83.21;99536.97;6183637;23;20064;-81
2021/12/27 03:08:13;;;;;;;14.48;9.52;;;;;;;0.14;83.59;99552.59;6183219;23;20078;-81
2021/12/27 03:10:40;;;;;;;17.40;8.98;;;;;;;0.09;81.56;99555.66;6183776;23;20016;-81
2021/12/27 03:13:06;;;;;;;16.52;8.95;;;;;;;0.11;81.33;99553.38;6156469;23;20023;-81
2021/12/27 03:15:31;;;;;;;14.20;9.30;;;;;;;0.12;81.72;99552.22;6157355;23;20044;-81
2021/12/27 03:17:57;;;;;;;14.85;9.30;;;;;;;0.12;82.43;99546.75;6183249;23;20017;-81
2021/12/27 03:20:26;;;;;;;15.32;10.10;;;;;;;0.15;82.91;99559.63;6183647;23;20132;-81
2021/12/27 03:22:51;;;;;;;17.73;10.23;;;;;;;0.16;83.39;99558.47;6156603;23;20013;-81
2021/12/27 03:25:24;;;;;;;17.30;9.63;;;;;;;0.13;83.73;99551.81;6183560;23;20005;-82
2021/12/27 03:27:50;;;;;;;16.42;9.93;;;;;;;0.10;82.05;99549.84;6181692;23;20025;-81
2021/12/27 03:30:19;;;;;;;17.77;10.95;;;;;;;0.12;83.12;99544.03;6183551;23;20072;-81
2021/12/27 03:32:45;;;;;;;18.92;11.73;;;;;;;0.13;83.89;99537.38;6156745;23;20044;-81
2021/12/27 03:35:15;;;;;;;19.42;12.90;;;;;;;0.08;84.63;99548.69;6183287;23;20016;-81
2021/12/27 03:37:43;;;;;;;20.73;12.95;;;;;;;0.09;85.15;99550.22;6157884;23;20398;-81
2021/12/27 03:40:10;;;;;;;20.73;12.75;;;;;;;0.08;86.06;99543.22;6156729;23;20336;-81
2021/12/27 03:42:36;;;;;;;24.30;14.50;;;;;;;0.05;85.62;99552.13;6183136;23;20012;-81
2021/12/27 03:45:03;;;;;;;23.67;14.95;;;;;;;0.06;86.08;99556.44;6182931;23;20096;-79
2021/12/27 03:47:29;;;;;;;23.92;15.15;;;;;;;0.08;86.66;99549.47;6157158;23;20083;-79
2021/12/27 03:49:54;;;;;;;26.38;14.90;;;;;;;0.03;87.13;99547.06;6182982;23;20427;-79
2021/12/27 03:52:20;;;;;;;24.10;15.30;;;;;;;0.04;87.79;99551.38;6182820;23;20407;-79
2021/12/27 03:54:45;;;;;;;23.30;13.32;;;;;;;0.09;87.45;99559.19;6156881;23;20020;-79
2021/12/27 03:57:14;;;;;;;22.73;13.18;;;;;;;-0.02;85.71;99545.47;6183550;23;20039;-79
2021/12/27 03:59:54;;;;;;;18.48;11.50;;;;;;;0.05;84.53;99561.09;6183369;23;20061;-79
2021/12/27 04:02:19;;;;;;;15.65;9.57;;;;;;;-0.03;80.96;99564.94;6182909;23;20013;-79
2021/12/27 04:04:45;;;;;;;14.55;9.52;;;;;;;-0.06;79.72;99558.31;6182936;23;20017;-79
2021/12/27 04:07:11;;;;;;;16.30;9.95;;;;;;;-0.05;81.33;99561.81;6182554;23;20431;-79
2021/12/27 04:09:37;;;;;;;14.18;9.18;;;;;;;-0.06;80.80;99557.50;6183094;23;20044;-79
2021/12/27 04:12:04;;;;;;;15.10;9.15;;;;;;;-0.06;81.75;99558.31;6131843;23;20067;-79
2021/12/27 04:14:29;;;;;;;16.55;9.38;;;;;;;0.00;82.79;99554.06;6182866;23;20004;-79
2021/12/27 04:16:55;;;;;;;14.30;9.02;;;;;;;-0.02;81.34;99559.13;6156723;23;20013;-79
2021/12/27 04:19:21;;;;;;;13.35;7.93;;;;;;;-0.04;79.18;99564.16;6156834;23;20037;-79
2021/12/27 04:21:49;;;;;;;13.60;8.20;;;;;;;-0.10;79.51;99557.50;6182888;23;20016;-79
2021/12/27 04:24:15;;;;;;;12.20;8.15;;;;;;;-0.06;79.19;99558.31;6182921;23;20048;-78
2021/12/27 04:26:40;;;;;;;13.63;8.23;;;;;;;-0.10;80.37;99554.75;6183033;23;20075;-79
2021/12/27 04:29:06;;;;;;;14.90;8.75;;;;;;;-0.08;79.36;99546.97;6182551;23;20083;-79
2021/12/27 04:31:32;;;;;;;15.23;8.68;;;;;;;-0.03;80.51;99554.03;6132094;23;20025;-79
2021/12/27 04:33:58;;;;;;;12.48;8.15;;;;;;;-0.06;80.73;99544.66;6182597;23;20060;-79
2021/12/27 04:36:23;;;;;;;15.95;8.70;;;;;;;-0.06;80.79;99550.13;6182815;23;20012;-79
2021/12/27 04:38:49;;;;;;;15.98;8.38;;;;;;;-0.01;80.99;99552.50;6156100;23;20013;-78
2021/12/27 04:41:19;;;;;;;14.32;8.55;;;;;;;-0.02;80.68;99553.66;6182678;23;20012;-79
2021/12/27 04:43:44;;;;;;;13.77;8.23;;;;;;;-0.03;80.40;99554.81;6183251;23;20147;-79
2021/12/27 04:46:10;;;;;;;12.80;7.93;;;;;;;-0.01;80.47;99549.78;6156175;23;20448;-79
2021/12/27 04:48:35;;;;;;;14.00;8.98;;;;;;;0.00;80.25;99547.84;6156836;23;20019;-79
2021/12/27 04:51:01;;;;;;;17.30;8.45;;;;;;;0.00;81.10;99551.31;6182811;23;20040;-79
2021/12/27 04:53:26;;;;;;;13.43;8.43;;;;;;;-0.04;80.60;99552.47;6131772;23;20009;-79
2021/12/27 04:55:52;;;;;;;14.95;9.15;;;;;;;-0.02;81.58;99552.88;6182756;23;20059;-79
2021/12/27 04:58:21;;;;;;;13.40;8.70;;;;;;;-0.07;80.79;99540.38;6187235;23;20199;-79
2021/12/27 05:00:46;;;;;;;16.23;9.13;;;;;;;-0.02;81.20;99544.69;6193206;23;20020;-79
2021/12/27 05:03:12;;;;;;;15.25;8.73;;;;;;;-0.08;81.42;99546.22;6166373;23;20005;-80
2021/12/27 05:05:41;;;;;;;13.25;8.43;;;;;;;-0.08;80.04;99546.97;6194042;23;20191;-79
2021/12/27 05:08:07;;;;;;;14.25;7.88;;;;;;;-0.10;77.81;99543.84;6167235;23;20013;-79
2021/12/27 05:10:32;;;;;;;12.95;7.07;;;;;;;-0.12;77.60;99538.00;6160216;23;20056;-79
2021/12/27 05:12:58;;;;;;;11.73;7.55;;;;;;;-0.16;77.44;99533.69;6182452;23;20383;-79
2021/12/27 05:15:24;;;;;;;10.70;6.68;;;;;;;-0.16;74.17;99545.34;6156780;23;20009;-79
2021/12/27 05:17:49;;;;;;;10.60;7.10;;;;;;;-0.14;75.58;99547.72;6182782;23;20059;-79
2021/12/27 05:20:15;;;;;;;12.35;6.68;;;;;;;-0.29;72.21;99529.69;6182747;23;20013;-79
2021/12/27 05:22:41;;;;;;;10.90;6.28;;;;;;;-0.18;74.12;99530.53;6183799;23;20087;-78
2021/12/27 05:25:09;;;;;;;8.68;5.43;;;;;;;-0.17;73.41;99543.81;6157091;23;20012;-79
2021/12/27 05:27:36;;;;;;;9.73;5.40;;;;;;;-0.20;73.15;99525.47;6158060;23;20064;-79
2021/12/27 05:30:02;;;;;;;9.18;5.50;;;;;;;-0.25;70.19;99531.28;6183767;23;20064;-78
2021/12/27 05:32:28;;;;;;;10.27;5.40;;;;;;;-0.22;73.12;99525.06;6183156;23;20098;-78
2021/12/27 05:34:53;;;;;;;8.38;5.40;;;;;;;-0.20;72.94;99528.19;6182325;23;20598;-79
2021/12/27 05:37:19;;;;;;;10.25;5.47;;;;;;;-0.22;72.38;99530.53;6184378;23;20081;-79
2021/12/27 05:39:44;;;;;;;9.70;6.00;;;;;;;-0.18;73.93;99514.19;6157719;23;20013;-79
2021/12/27 05:42:10;;;;;;;9.52;6.00;;;;;;;-0.15;74.33;99524.34;6184420;23;20019;-79
2021/12/27 05:44:36;;;;;;;9.57;5.80;;;;;;;-0.22;73.54;99519.63;6157792;23;20001;-78
2021/12/27 05:47:01;;;;;;;8.30;5.50;;;;;;;-0.23;72.06;99528.94;6184226;23;20091;-79
2021/12/27 05:49:27;;;;;;;11.05;6.45;;;;;;;-0.27;72.71;99528.13;6184114;23;20325;-78
2021/12/27 05:51:52;;;;;;;11.18;6.10;;;;;;;-0.23;73.30;99534.41;6184465;23;20076;-79
2021/12/27 05:54:20;;;;;;;7.78;5.50;;;;;;;-0.17;73.80;99532.91;6184001;23;20009;-79
2021/12/27 05:56:47;;;;;;;8.02;4.82;;;;;;;-0.17;74.27;99532.91;6184164;23;20013;-79
2021/12/27 05:59:12;;;;;;;7.53;4.43;;;;;;;-0.19;70.15;99546.13;6157563;23;20009;-79
2021/12/27 06:01:38;;;;;;;7.43;4.88;;;;;;;-0.22;68.14;99535.97;6133470;23;20024;-79
2021/12/27 06:04:04;;;;;;;6.93;4.57;;;;;;;-0.25;69.54;99539.47;6183451;23;20044;-78
2021/12/27 06:06:30;;;;;;;8.48;4.30;;;;;;;-0.22;68.88;99540.63;6184113;23;20443;-79
2021/12/27 06:08:56;;;;;;;6.97;3.78;;;;;;;-0.26;65.07;99546.06;6183606;23;20013;-78
2021/12/27 06:11:21;;;;;;;8.80;4.13;;;;;;;-0.32;65.36;99546.78;6184111;23;20464;-78
2021/12/27 06:13:47;;;;;;;6.78;3.83;;;;;;;-0.36;66.36;99546.72;6184203;23;20023;-79
2021/12/27 06:16:12;;;;;;;6.93;3.97;;;;;;;-0.29;66.10;99546.81;6184013;23;20338;-79
2021/12/27 06:18:38;;;;;;;6.72;4.00;;;;;;;-0.31;64.76;99549.13;6184089;23;20035;-79
2021/12/27 06:21:04;;;;;;;7.78;3.78;;;;;;;-0.46;63.71;99547.44;6156575;23;20013;-79
2021/12/27 06:23:31;;;;;;;7.97;4.32;;;;;;;-0.45;65.14;99549.00;6183414;23;20048;-78
2021/12/27 06:25:57;;;;;;;8.20;4.97;;;;;;;-0.37;66.66;99547.13;6182827;23;20005;-80
2021/12/27 06:28:22;;;;;;;8.40;5.45;;;;;;;-0.48;64.97;99545.06;6131408;23;20440;-78
2021/12/27 06:30:48;;;;;;;10.77;5.72;;;;;;;-0.59;68.13;99540.69;6156264;23;20009;-78
2021/12/27 06:33:14;;;;;;;7.55;4.63;;;;;;;-0.52;67.66;99548.91;6181227;23;20072;-78
2021/12/27 06:35:40;;;;;;;7.18;4.00;;;;;;;-0.47;67.50;99549.38;6152717;23;20001;-79
2021/12/27 06:38:05;;;;;;;9.40;5.80;;;;;;;-0.40;65.89;99550.63;6179614;23;20336;-78
2021/12/27 06:40:31;;;;;;;9.23;5.78;;;;;;;-0.42;68.18;99542.00;6153548;23;20017;-78
2021/12/27 06:42:57;;;;;;;11.32;6.93;;;;;;;-0.36;70.81;99552.19;6179662;23;20325;-79
2021/12/27 06:45:24;;;;;;;23.90;13.93;;;;;;;-0.35;71.87;99548.31;6180257;23;20020;-78
2021/12/27 06:47:49;;;;;;;27.90;15.73;;;;;;;-0.35;73.45;99542.84;6151678;23;20063;-78
2021/12/27 06:50:15;;;;;;;22.40;13.60;;;;;;;-0.40;73.56;99540.47;6180613;23;20088;-79
2021/12/27 06:52:41;;;;;;;14.55;9.48;;;;;;;-0.36;73.81;99543.25;6156135;23;20001;-79
2021/12/27 06:55:08;;;;;;;20.23;12.15;;;;;;;-0.38;74.34;99538.16;6154289;23;20013;-79
2021/12/27 06:57:34;;;;;;;19.63;11.85;;;;;;;-0.32;75.30;99544.81;6156155;23;20080;-79
2021/12/27 07:00:01;;;;;;;17.20;10.23;;;;;;;-0.31;74.65;99551.84;6155232;23;20055;-79
2021/12/27 07:02:27;;;;;;;13.20;8.60;;;;;;;-0.30;73.06;99550.69;6181439;23;20095;-79
2021/12/27 07:04:52;;;;;;;14.23;8.93;;;;;;;-0.30;69.56;99545.25;6181739;23;20040;-79
2021/12/27 07:07:18;;;;;;;16.48;9.20;;;;;;;-0.35;69.25;99547.53;6181805;23;20048;-79
2021/12/27 07:09:43;;;;;;;18.10;9.30;;;;;;;-0.36;66.39;99546.72;6182155;23;20026;-79
2021/12/27 07:12:09;;;;;;;17.85;8.40;;;;;;;-0.35;65.74;99545.59;6182059;23;20013;-79
2021/12/27 07:14:34;;;;;;;17.80;7.50;;;;;;;-0.34;65.34;99544.44;6182332;23;20020;-79
2021/12/27 07:17:00;;;;;;;16.40;7.43;;;;;;;-0.34;64.31;99528.09;6182195;23;20008;-79
2021/12/27 07:19:26;;;;;;;32.10;17.17;;;;;;;-0.36;62.61;99545.97;6156171;23;20020;-79
2021/12/27 07:21:51;;;;;;;18.00;11.70;;;;;;;-0.39;63.05;99535.81;6182235;23;20021;-79
2021/12/27 07:24:17;;;;;;;19.13;11.20;;;;;;;-0.36;64.67;99541.28;6181516;23;20343;-79
2021/12/27 07:26:42;;;;;;;19.00;10.73;;;;;;;-0.34;65.53;99541.72;6183029;23;20005;-79
2021/12/27 07:29:08;;;;;;;23.33;10.77;;;;;;;-0.35;65.32;99542.84;6182989;23;20056;-79
2021/12/27 07:31:33;;;;;;;15.48;8.27;;;;;;;-0.34;65.20;99543.66;6183424;23;20016;-79
2021/12/27 07:34:00;;;;;;;16.70;6.80;;;;;;;-0.41;61.72;99538.94;6156554;23;20449;-79
2021/12/27 07:36:29;;;;;;;15.82;8.20;;;;;;;-0.42;62.42;99542.81;6183615;23;20068;-79
2021/12/27 07:38:55;;;;;;;12.60;6.38;;;;;;;-0.47;62.56;99556.75;6183128;23;20431;-79
2021/12/27 07:41:21;;;;;;;9.23;4.97;;;;;;;-0.48;63.96;99549.72;6183396;23;20028;-79
2021/12/27 07:43:47;;;;;;;8.70;5.07;;;;;;;-0.45;63.58;99561.84;6183174;23;20020;-79
2021/12/27 07:46:12;;;;;;;10.18;5.85;;;;;;;-0.49;64.00;99554.44;6156777;23;20049;-79
2021/12/27 07:48:38;;;;;;;11.25;6.03;;;;;;;-0.44;65.28;99552.53;6183100;23;20036;-79
2021/12/27 07:51:03;;;;;;;10.65;5.55;;;;;;;-0.56;61.76;99543.44;6182800;23;20009;-79
2021/12/27 07:53:29;;;;;;;8.85;5.30;;;;;;;-0.52;61.78;99559.81;6183491;23;20092;-79
2021/12/27 07:55:56;;;;;;;8.73;5.20;;;;;;;-0.50;62.30;99560.25;6183248;23;20041;-79
2021/12/27 07:58:21;;;;;;;9.10;5.00;;;;;;;-0.50;61.51;99557.50;6157101;23;20040;-79
2021/12/27 08:00:50;;;;;;;8.70;5.78;;;;;;;-0.54;61.13;99559.41;6156931;23;20063;-79
2021/12/27 08:03:18;;;;;;;10.52;6.20;;;;;;;-0.56;60.32;99559.00;6182635;23;20067;-79
2021/12/27 08:05:43;;;;;;;9.13;5.47;;;;;;;-0.55;60.93;99555.13;6157190;23;20084;-79
2021/12/27 08:08:09;;;;;;;9.63;6.00;;;;;;;-0.55;62.18;99549.69;6183121;23;20060;-79
2021/12/27 08:10:34;;;;;;;10.10;5.85;;;;;;;-0.60;61.07;99553.50;6183146;23;20428;-79
2021/12/27 08:13:01;;;;;;;9.27;5.72;;;;;;;-0.62;60.66;99553.13;6182636;23;20059;-79
2021/12/27 08:15:27;;;;;;;9.98;5.93;;;;;;;-0.62;61.37;99552.34;6183398;23;20013;-79
2021/12/27 08:17:52;;;;;;;10.32;6.15;;;;;;;-0.67;60.84;99558.91;6183424;23;20431;-79
2021/12/27 08:20:18;;;;;;;10.98;6.40;;;;;;;-0.65;60.00;99555.81;6156477;23;20100;-79
2021/12/27 08:22:43;;;;;;;12.02;6.80;;;;;;;-0.76;60.47;99549.44;6156840;23;20012;-79
2021/12/27 08:25:09;;;;;;;11.73;6.30;;;;;;;-0.76;62.01;99549.44;6183006;23;20037;-78
2021/12/27 08:27:40;;;;;;;11.15;5.88;;;;;;;-0.77;61.38;99564.25;6156708;23;20013;-79
2021/12/27 08:30:07;;;;;;;12.50;6.95;;;;;;;-0.77;62.24;99553.34;6156759;23;20017;-79
2021/12/27 08:32:37;;;;;;;12.73;6.72;;;;;;;-0.75;63.28;99546.38;6182214;23;20005;-79
2021/12/27 08:35:03;;;;;;;11.43;6.75;;;;;;;-0.65;64.81;99550.38;6183518;23;20036;-78
2021/12/27 08:37:29;;;;;;;12.35;6.68;;;;;;;-0.61;62.16;99559.34;6182740;23;20684;-79
2021/12/27 08:39:57;;;;;;;13.00;7.25;;;;;;;-0.59;63.70;99570.66;6156295;23;20342;-79
2021/12/27 08:42:23;;;;;;;13.80;7.43;;;;;;;-0.58;64.23;99558.59;6182671;23;20016;-79
2021/12/27 08:44:49;;;;;;;15.65;8.00;;;;;;;-0.50;64.18;99552.06;6182997;23;20001;-79
2021/12/27 08:47:15;;;;;;;11.45;7.00;;;;;;;-0.54;63.37;99556.69;6182457;23;20132;-79
2021/12/27 08:49:41;;;;;;;13.38;7.35;;;;;;;-0.53;63.62;99561.00;6182884;23;20030;-79
2021/12/27 08:52:09;;;;;;;12.63;7.22;;;;;;;-0.60;63.79;99558.97;6156453;23;20017;-79
2021/12/27 08:54:35;;;;;;;13.93;7.70;;;;;;;-0.51;66.01;99572.28;6156565;23;20016;-78
2021/12/27 08:57:03;;;;;;;12.48;7.55;;;;;;;-0.58;63.71;99553.16;6182206;23;20005;-79
2021/12/27 08:59:28;;;;;;;14.85;8.15;;;;;;;-0.49;64.65;99573.50;6156459;23;20013;-79
2021/12/27 09:01:54;;;;;;;15.00;7.30;;;;;;;-0.53;65.27;99569.16;6181380;23;20006;-79
2021/12/27 09:04:19;;;;;;;11.95;8.02;;;;;;;-0.50;65.92;99569.19;6181213;23;20032;-79
2021/12/27 09:06:45;;;;;;;13.27;7.82;;;;;;;-0.55;65.10;99574.19;6182820;23;20056;-79
2021/12/27 09:09:11;;;;;;;11.95;7.15;;;;;;;-0.57;65.63;99563.69;6182051;23;20009;-79
2021/12/27 09:11:36;;;;;;;13.30;6.72;;;;;;;-0.44;66.68;99566.91;6183668;23;20011;-79
2021/12/27 09:14:04;;;;;;;13.27;6.90;;;;;;;-0.38;66.02;99570.88;6183916;23;20013;-78
2021/12/27 09:16:30;;;;;;;14.75;7.80;;;;;;;-0.43;65.76;99556.78;6184627;23;20502;-79
2021/12/27 09:18:55;;;;;;;12.13;7.63;;;;;;;-0.42;65.37;99561.88;6184387;23;20509;-78
2021/12/27 09:21:21;;;;;;;15.25;7.95;;;;;;;-0.38;65.54;99567.34;6184407;23;20088;-78
2021/12/27 09:23:46;;;;;;;13.13;7.53;;;;;;;-0.35;66.34;99564.66;6184281;23;20017;-78
2021/12/27 09:26:12;;;;;;;16.02;8.32;;;;;;;-0.29;66.42;99562.38;6183252;23;20095;-78
2021/12/27 09:28:37;;;;;;;14.27;8.52;;;;;;;-0.38;65.70;99559.97;6156752;23;20466;-78
2021/12/27 09:31:03;;;;;;;13.48;7.57;;;;;;;-0.32;66.62;99558.44;6183645;23;20013;-78
2021/12/27 09:33:28;;;;;;;15.02;7.85;;;;;;;-0.25;67.75;99564.00;6184404;23;20266;-79
2021/12/27 09:35:54;;;;;;;13.80;7.43;;;;;;;-0.36;66.53;99557.63;6158344;23;20009;-79
2021/12/27 09:38:20;;;;;;;10.77;6.93;;;;;;;-0.26;66.85;99565.13;6158127;23;20096;-80
2021/12/27 09:40:45;;;;;;;11.90;6.88;;;;;;;-0.23;65.61;99578.00;6184583;23;20021;-79
2021/12/27 09:43:11;;;;;;;12.32;7.35;;;;;;;-0.18;65.13;99566.78;6157602;23;20085;-79
2021/12/27 09:45:37;;;;;;;11.52;7.07;;;;;;;-0.18;65.15;99580.41;6184475;23;20064;-79
2021/12/27 09:48:03;;;;;;;10.45;6.55;;;;;;;-0.23;65.34;99572.56;6157405;23;20013;-79
2021/12/27 09:50:45;;;;;;;13.50;7.30;;;;;;;-0.22;66.42;99571.41;6158338;23;20020;-79
2021/12/27 09:53:10;;;;;;;11.48;6.40;;;;;;;-0.23;65.34;99567.09;6183889;23;20155;-78
2021/12/27 09:55:36;;;;;;;12.93;6.68;;;;;;;-0.22;65.48;99565.97;6133172;23;20388;-78
2021/12/27 09:58:02;;;;;;;10.35;6.65;;;;;;;-0.27;65.69;99557.34;6157511;23;20443;-78
2021/12/27 10:00:28;;;;;;;11.13;6.13;;;;;;;-0.29;65.73;99552.28;6183832;23;20059;-79
2021/12/27 10:02:57;;;;;;;11.88;6.43;;;;;;;-0.32;64.37;99563.16;6157749;23;20013;-79
2021/12/27 10:05:25;;;;;;;10.50;6.32;;;;;;;-0.33;64.84;99567.81;6103741;23;20067;-78
2021/12/27 10:07:51;;;;;;;12.68;6.78;;;;;;;-0.33;64.71;99567.81;6128429;23;20317;-79
2021/12/27 10:10:17;;;;;;;12.10;6.60;;;;;;;-0.32;64.81;99539.38;6154220;23;20006;-78
2021/12/27 10:12:43;;;;;;;12.90;6.80;;;;;;;-0.42;64.23;99548.25;6103909;23;20452;-79
2021/12/27 10:15:12;;;;;;;11.20;7.03;;;;;;;-0.42;65.07;99550.97;6153870;23;20014;-79
2021/12/27 10:17:38;;;;;;;12.15;6.88;;;;;;;-0.33;66.35;99554.19;6154111;23;20344;-78
2021/12/27 10:20:09;;;;;;;12.50;6.95;;;;;;;-0.29;65.94;99555.00;6152521;23;20068;-79
2021/12/27 10:22:39;;;;;;;12.73;7.47;;;;;;;-0.25;66.64;99550.38;6153877;23;20448;-78
2021/12/27 10:25:15;;;;;;;12.32;7.50;;;;;;;-0.22;65.12;99557.78;6153935;23;20013;-78
2021/12/27 10:27:41;;;;;;;12.73;7.45;;;;;;;-0.21;65.37;99556.63;6154882;23;20013;-79
2021/12/27 10:30:18;;;;;;;13.07;7.57;;;;;;;-0.23;64.80;99539.84;6153563;23;20100;-78
2021/12/27 10:33:01;;;;;;;11.38;7.15;;;;;;;-0.18;65.86;99536.78;6154475;23;20519;-79
2021/12/27 10:35:39;;;;;;;14.57;7.37;;;;;;;-0.13;65.65;99539.16;6154417;23;20010;-79
2021/12/27 10:38:20;;;;;;;12.02;7.18;;;;;;;-0.16;63.67;99534.44;6154199;23;20704;-79
2021/12/27 10:40:54;;;;;;;15.00;7.07;;;;;;;-0.10;65.14;99532.97;6154287;23;20013;-79
2021/12/27 10:43:56;;;;;;;10.48;6.38;;;;;;;-0.24;63.21;99532.81;6128113;23;20044;-79
2021/12/27 10:46:22;;;;;;;12.98;7.50;;;;;;;-0.18;65.48;99525.88;6153515;23;20348;-79
2021/12/27 10:48:57;;;;;;;13.07;7.45;;;;;;;-0.12;65.21;99523.59;6154207;23;20021;-79
2021/12/27 10:51:24;;;;;;;12.52;7.25;;;;;;;-0.12;65.23;99518.91;6128479;23;20040;-79
2021/12/27 10:53:55;;;;;;;12.40;6.82;;;;;;;-0.16;63.37;99509.16;6153744;23;20014;-79
2021/12/27 10:56:26;;;;;;;14.13;7.28;;;;;;;-0.06;63.92;99509.22;6127765;23;20413;-79
2021/12/27 10:58:53;;;;;;;11.43;7.10;;;;;;;0.02;64.21;99501.09;6153857;23;20021;-78
2021/12/27 11:01:20;;;;;;;13.68;6.90;;;;;;;0.08;61.88;99502.31;6153670;23;20020;-79
2021/12/27 11:03:50;;;;;;;12.68;7.22;;;;;;;0.08;62.01;99488.69;6163515;23;20032;-79
2021/12/27 11:06:24;;;;;;;13.02;7.47;;;;;;;0.10;62.95;99487.13;6183660;23;20017;-81
2021/12/27 11:08:51;;;;;;;13.73;7.45;;;;;;;0.25;62.79;99493.44;6157519;23;20052;-81
2021/12/27 11:11:18;;;;;;;11.90;6.90;;;;;;;0.16;62.31;99490.28;6183931;23;20005;-80
2021/12/27 11:13:45;;;;;;;14.05;7.40;;;;;;;0.12;61.57;99473.91;6184129;23;20486;-81
2021/12/27 11:16:11;;;;;;;12.85;7.13;;;;;;;0.05;62.41;99481.25;6183222;23;20364;-80
2021/12/27 11:18:36;;;;;;;11.98;7.07;;;;;;;0.12;63.12;99473.91;6184573;23;20064;-81
2021/12/27 11:21:11;;;;;;;12.82;6.90;;;;;;;0.18;62.34;99471.59;6183596;23;20023;-80
2021/12/27 11:23:37;;;;;;;12.90;7.13;;;;;;;0.25;61.17;99460.72;6184166;23;20340;-80
2021/12/27 11:26:06;;;;;;;11.85;6.57;;;;;;;0.23;60.47;99458.38;6182828;23;20047;-80
2021/12/27 11:28:34;;;;;;;12.25;6.80;;;;;;;0.34;60.90;99459.22;6183335;23;20013;-80
2021/12/27 11:31:07;;;;;;;12.65;7.15;;;;;;;0.42;61.65;99469.00;6182791;23;20055;-80